Time;durP1;ratioP1;P1;durP2;ratioP2;P2;SDS_P1;SDS_P2;PMS_P1;PMS_P2;Temp;Humidity;BMP_temperature;BMP_pressure;BME280_temperature;BME280_humidity;BME280_pressure;Samples;Min_cycle;Max_cycle;Signal;HPM_P1;HPM_P2
2023/06/25 00:02:11;;;;;;;10.70;5.47;;;18.90;99.90;;;;;;5116891;28;20384;-59
2023/06/25 00:04:37;;;;;;;10.63;6.03;;;18.90;99.90;;;;;;5117328;28;20020;-59
2023/06/25 00:07:03;;;;;;;10.18;5.65;;;18.90;99.90;;;;;;5117208;28;20028;-59
2023/06/25 00:09:29;;;;;;;7.93;4.93;;;18.90;99.90;;;;;;5117162;28;20024;-59
2023/06/25 00:11:55;;;;;;;7.72;5.18;;;18.90;99.90;;;;;;5116967;28;20028;-59
2023/06/25 00:14:21;;;;;;;7.70;5.75;;;18.80;99.90;;;;;;5116944;28;20112;-59
2023/06/25 00:16:47;;;;;;;7.15;5.00;;;18.90;99.90;;;;;;5117142;28;20393;-59
2023/06/25 00:19:18;;;;;;;10.60;5.57;;;18.90;99.90;;;;;;5117025;28;20028;-59
2023/06/25 00:21:44;;;;;;;9.18;5.38;;;18.90;99.90;;;;;;5116837;28;20107;-59
2023/06/25 00:24:10;;;;;;;13.23;5.80;;;18.80;99.90;;;;;;5116855;28;20503;-59
2023/06/25 00:26:36;;;;;;;8.82;5.20;;;18.90;99.90;;;;;;5116855;28;20110;-59
2023/06/25 00:29:03;;;;;;;11.07;5.50;;;18.90;99.90;;;;;;5116698;28;20059;-59
2023/06/25 00:31:29;;;;;;;7.35;5.07;;;18.90;99.90;;;;;;5116797;28;20036;-59
2023/06/25 00:33:55;;;;;;;6.75;4.88;;;18.80;99.90;;;;;;5116775;28;20072;-59
2023/06/25 00:36:21;;;;;;;6.32;5.28;;;18.90;99.90;;;;;;5104518;28;20108;-59
2023/06/25 00:38:47;;;;;;;9.95;5.47;;;18.90;99.90;;;;;;5095014;28;20465;-59
2023/06/25 00:41:13;;;;;;;8.23;5.63;;;18.90;99.90;;;;;;5096072;28;20024;-59
2023/06/25 00:43:41;;;;;;;11.68;5.18;;;18.80;99.90;;;;;;5094895;28;20028;-59
2023/06/25 00:46:16;;;;;;;6.85;5.13;;;18.80;99.90;;;;;;5096079;28;20157;-59
2023/06/25 00:48:45;;;;;;;7.68;5.30;;;18.80;99.90;;;;;;5096117;28;20039;-59
2023/06/25 00:51:16;;;;;;;9.25;5.10;;;18.80;99.90;;;;;;5095937;28;20024;-59
2023/06/25 00:53:43;;;;;;;6.80;5.60;;;18.80;99.90;;;;;;5094652;28;20470;-59
2023/06/25 00:56:09;;;;;;;5.55;5.00;;;18.80;99.90;;;;;;5096048;28;20063;-59
2023/06/25 00:58:37;;;;;;;6.22;4.63;;;18.80;99.90;;;;;;5094599;28;20031;-59
2023/06/25 01:01:15;;;;;;;6.53;5.15;;;18.80;99.90;;;;;;5095881;28;20036;-59
2023/06/25 01:03:54;;;;;;;8.77;5.25;;;18.80;99.90;;;;;;5095629;28;20028;-59
2023/06/25 01:06:33;;;;;;;9.20;5.60;;;18.80;99.90;;;;;;5094726;28;20111;-59
2023/06/25 01:09:00;;;;;;;17.63;9.20;;;18.80;99.90;;;;;;5095661;28;20056;-59
2023/06/25 01:11:30;;;;;;;17.60;8.88;;;18.80;99.90;;;;;;5095499;28;20028;-59
2023/06/25 01:13:56;;;;;;;11.05;8.10;;;18.80;99.90;;;;;;5095614;28;20028;-59
2023/06/25 01:16:23;;;;;;;16.00;8.25;;;18.80;99.90;;;;;;5095306;28;20524;-59
2023/06/25 01:18:50;;;;;;;19.48;9.63;;;18.80;99.90;;;;;;5094085;28;20044;-59
2023/06/25 01:21:23;;;;;;;13.55;7.97;;;18.90;99.90;;;;;;5095513;28;20028;-59
2023/06/25 01:23:50;;;;;;;14.20;8.25;;;18.90;99.90;;;;;;5094141;28;20034;-59
2023/06/25 01:26:16;;;;;;;14.68;8.32;;;18.90;99.90;;;;;;5095191;28;20052;-59
2023/06/25 01:28:42;;;;;;;13.52;7.80;;;18.90;99.90;;;;;;5095241;28;20776;-59
2023/06/25 01:31:08;;;;;;;16.60;8.40;;;18.90;99.90;;;;;;5095288;28;20078;-59
2023/06/25 01:33:34;;;;;;;15.32;7.55;;;18.90;99.90;;;;;;5095186;28;20020;-59
2023/06/25 01:36:01;;;;;;;16.67;9.18;;;18.90;99.90;;;;;;5101617;28;20023;-59
2023/06/25 01:38:27;;;;;;;15.80;8.82;;;18.80;99.90;;;;;;5114179;28;20055;-58
2023/06/25 01:40:52;;;;;;;17.20;9.82;;;18.80;99.90;;;;;;5115312;28;20055;-58
2023/06/25 01:43:18;;;;;;;18.42;9.75;;;18.90;99.90;;;;;;5115486;28;20032;-59
2023/06/25 01:45:44;;;;;;;21.98;9.75;;;18.90;99.90;;;;;;5115352;28;20030;-59
2023/06/25 01:48:10;;;;;;;15.30;8.52;;;18.80;99.90;;;;;;5113974;28;20380;-58
2023/06/25 01:50:36;;;;;;;12.63;9.68;;;18.80;99.90;;;;;;5115323;28;20083;-59
2023/06/25 01:53:02;;;;;;;17.42;9.35;;;18.80;99.90;;;;;;5114189;28;20051;-59
2023/06/25 01:55:28;;;;;;;11.50;8.23;;;18.80;99.90;;;;;;5115167;28;20031;-59
2023/06/25 01:57:54;;;;;;;14.32;8.80;;;18.90;99.90;;;;;;5114087;28;20525;-59
2023/06/25 02:00:20;;;;;;;13.75;8.77;;;18.80;99.90;;;;;;5113718;28;20076;-59
2023/06/25 02:03:00;;;;;;;19.45;9.45;;;18.80;99.90;;;;;;5115214;28;20068;-59
2023/06/25 02:05:26;;;;;;;12.57;8.80;;;18.80;99.90;;;;;;5115093;28;20019;-58
2023/06/25 02:07:52;;;;;;;12.93;8.48;;;18.80;99.90;;;;;;5115015;28;20362;-59
2023/06/25 02:10:18;;;;;;;10.93;7.55;;;18.80;99.90;;;;;;5114872;28;20031;-58
2023/06/25 02:12:44;;;;;;;14.52;7.70;;;18.70;99.90;;;;;;5115065;28;20028;-58
2023/06/25 02:15:11;;;;;;;10.65;6.80;;;18.70;99.90;;;;;;5113487;28;20059;-59
2023/06/25 02:17:37;;;;;;;11.10;7.25;;;18.70;99.90;;;;;;5113491;28;20031;-59
2023/06/25 02:20:05;;;;;;;10.27;7.57;;;18.70;99.90;;;;;;5115055;28;20039;-59
2023/06/25 02:22:31;;;;;;;11.48;7.47;;;18.70;99.90;;;;;;5114876;28;20039;-59
2023/06/25 02:24:57;;;;;;;10.48;6.88;;;18.70;99.90;;;;;;5113550;28;20027;-59
2023/06/25 02:27:23;;;;;;;9.23;7.40;;;18.70;99.90;;;;;;5113529;28;20034;-59
2023/06/25 02:29:49;;;;;;;10.05;6.40;;;18.70;99.90;;;;;;5114884;28;20028;-58
2023/06/25 02:32:14;;;;;;;12.50;7.07;;;18.70;99.90;;;;;;5114882;28;20031;-58
2023/06/25 02:34:40;;;;;;;9.85;7.10;;;18.70;99.90;;;;;;5114850;28;20350;-59
2023/06/25 02:37:15;;;;;;;12.73;6.85;;;18.70;99.90;;;;;;5097722;28;20028;-58
2023/06/25 02:39:41;;;;;;;10.07;7.05;;;18.60;99.90;;;;;;5094569;28;20059;-59
2023/06/25 02:42:07;;;;;;;8.30;6.93;;;18.60;99.90;;;;;;5094264;28;20111;-59
2023/06/25 02:44:33;;;;;;;9.80;7.05;;;18.60;99.90;;;;;;5094407;28;20103;-59
2023/06/25 02:46:59;;;;;;;8.98;6.40;;;18.60;99.90;;;;;;5094201;28;20036;-59
2023/06/25 02:49:26;;;;;;;8.95;6.47;;;18.60;99.90;;;;;;5092969;28;20026;-59
2023/06/25 02:51:52;;;;;;;9.20;6.43;;;18.50;99.90;;;;;;5092937;28;20036;-59
2023/06/25 02:54:17;;;;;;;10.73;7.25;;;18.60;99.90;;;;;;5093189;28;20074;-59
2023/06/25 02:56:43;;;;;;;12.85;7.65;;;18.50;99.90;;;;;;5094203;28;20028;-59
2023/06/25 02:59:09;;;;;;;11.02;6.93;;;18.50;99.90;;;;;;5094124;28;20062;-59
2023/06/25 03:01:36;;;;;;;8.88;7.13;;;18.50;99.90;;;;;;5093006;28;20119;-59
2023/06/25 03:04:02;;;;;;;10.95;7.13;;;18.50;99.90;;;;;;5092910;28;20106;-59
2023/06/25 03:06:28;;;;;;;8.43;6.82;;;18.50;99.90;;;;;;5092689;28;20460;-59
2023/06/25 03:08:54;;;;;;;9.77;6.70;;;18.50;99.90;;;;;;5092886;28;20065;-59
2023/06/25 03:11:20;;;;;;;10.63;7.60;;;18.60;99.90;;;;;;5092641;28;20032;-59
2023/06/25 03:13:46;;;;;;;12.80;7.30;;;18.50;99.90;;;;;;5092786;28;20504;-59
2023/06/25 03:16:12;;;;;;;9.48;7.30;;;18.40;99.90;;;;;;5092584;28;20070;-59
2023/06/25 03:18:38;;;;;;;8.70;6.95;;;18.40;99.90;;;;;;5092738;28;20462;-59
2023/06/25 03:21:04;;;;;;;10.25;7.40;;;18.40;99.90;;;;;;5092778;28;20177;-59
2023/06/25 03:23:32;;;;;;;12.15;7.60;;;18.50;99.90;;;;;;5094007;28;20040;-59
2023/06/25 03:26:00;;;;;;;11.10;6.95;;;18.50;99.90;;;;;;5076033;28;20036;-59
2023/06/25 03:28:27;;;;;;;8.27;7.38;;;18.40;99.90;;;;;;5092602;28;20059;-59
2023/06/25 03:30:53;;;;;;;13.52;8.18;;;18.40;99.90;;;;;;5097481;28;20512;-59
2023/06/25 03:33:20;;;;;;;10.75;7.55;;;18.50;99.90;;;;;;5096132;28;20119;-59
2023/06/25 03:35:46;;;;;;;14.63;6.97;;;18.40;99.90;;;;;;5103068;28;20149;-59
2023/06/25 03:38:13;;;;;;;8.98;7.38;;;18.40;99.90;;;;;;5116445;28;20039;-59
2023/06/25 03:40:40;;;;;;;11.02;7.43;;;18.40;99.90;;;;;;5116322;28;20051;-59
2023/06/25 03:43:05;;;;;;;9.70;7.20;;;18.40;99.90;;;;;;5116486;28;20030;-59
2023/06/25 03:45:34;;;;;;;9.48;6.65;;;18.30;99.90;;;;;;5116311;28;20031;-58
2023/06/25 03:48:00;;;;;;;12.98;7.60;;;18.30;99.90;;;;;;5116272;28;20031;-58
2023/06/25 03:50:26;;;;;;;17.70;7.60;;;18.30;99.90;;;;;;5116341;28;20076;-59
2023/06/25 03:52:52;;;;;;;11.18;7.00;;;18.30;99.90;;;;;;5117376;28;20045;-59
2023/06/25 03:55:18;;;;;;;10.43;7.00;;;18.20;99.90;;;;;;5116154;28;20388;-59
2023/06/25 03:57:44;;;;;;;15.38;7.28;;;18.30;99.90;;;;;;5117504;28;20362;-59
2023/06/25 04:00:10;;;;;;;11.00;8.13;;;18.30;99.90;;;;;;5116100;28;20031;-59
2023/06/25 04:02:39;;;;;;;14.07;7.13;;;18.20;99.90;;;;;;5117351;28;20063;-59
2023/06/25 04:05:05;;;;;;;8.95;6.88;;;18.20;99.90;;;;;;5116000;28;20039;-59
2023/06/25 04:07:32;;;;;;;8.75;6.63;;;18.20;99.90;;;;;;5115970;28;20016;-59
2023/06/25 04:09:57;;;;;;;8.02;7.05;;;18.20;99.90;;;;;;5115810;28;20031;-59
2023/06/25 04:12:24;;;;;;;8.40;6.72;;;18.20;99.90;;;;;;5115878;28;20048;-59
2023/06/25 04:14:50;;;;;;;12.82;7.00;;;18.30;99.90;;;;;;5116955;28;20052;-59
2023/06/25 04:17:16;;;;;;;14.80;6.80;;;18.20;99.90;;;;;;5115956;28;20023;-59
2023/06/25 04:19:43;;;;;;;10.68;7.25;;;18.20;99.90;;;;;;5115775;28;20114;-59
2023/06/25 04:22:09;;;;;;;11.48;7.20;;;18.20;99.90;;;;;;5115772;28;20056;-59
2023/06/25 04:24:35;;;;;;;10.43;7.65;;;18.20;99.90;;;;;;5115539;28;20027;-59
2023/06/25 04:27:01;;;;;;;13.70;8.70;;;18.20;99.90;;;;;;5115535;28;20522;-59
2023/06/25 04:29:29;;;;;;;14.98;8.88;;;18.10;99.90;;;;;;5115549;28;20031;-59
2023/06/25 04:31:55;;;;;;;13.90;8.82;;;18.10;99.90;;;;;;5115513;28;20031;-59
2023/06/25 04:34:21;;;;;;;16.63;9.50;;;18.10;99.90;;;;;;5115540;28;20109;-59
2023/06/25 04:36:50;;;;;;;18.20;10.15;;;18.10;99.90;;;;;;5100660;28;20055;-59
2023/06/25 04:39:16;;;;;;;15.27;9.82;;;18.10;99.90;;;;;;5094912;28;20036;-59
2023/06/25 04:41:43;;;;;;;17.55;10.52;;;18.20;99.90;;;;;;5094767;28;20478;-59
2023/06/25 04:44:09;;;;;;;19.13;10.88;;;18.30;99.90;;;;;;5094826;28;20024;-59
2023/06/25 04:46:35;;;;;;;21.67;12.70;;;18.30;99.90;;;;;;5094717;28;20059;-59
2023/06/25 04:49:02;;;;;;;22.35;11.75;;;18.30;99.90;;;;;;5095989;28;20492;-59
2023/06/25 04:51:28;;;;;;;18.52;11.43;;;18.30;99.90;;;;;;5094762;28;20039;-59
2023/06/25 04:53:54;;;;;;;18.73;11.90;;;18.30;99.90;;;;;;5095868;28;20081;-59
2023/06/25 04:56:20;;;;;;;21.23;12.93;;;18.30;99.90;;;;;;5095936;28;20023;-59
2023/06/25 04:58:46;;;;;;;19.30;12.25;;;18.30;99.90;;;;;;5095803;28;20103;-59
2023/06/25 05:01:12;;;;;;;19.73;11.45;;;18.30;99.90;;;;;;5095728;28;20470;-59
2023/06/25 05:03:38;;;;;;;26.83;12.60;;;18.30;99.90;;;;;;5095735;28;20039;-59
2023/06/25 05:06:04;;;;;;;18.52;10.68;;;18.30;99.90;;;;;;5095720;28;20027;-59
2023/06/25 05:08:30;;;;;;;17.65;10.85;;;18.30;99.90;;;;;;5095710;28;20085;-59
2023/06/25 05:10:56;;;;;;;21.45;11.27;;;18.30;99.90;;;;;;5095562;28;20032;-59
2023/06/25 05:13:22;;;;;;;18.98;11.60;;;18.30;99.90;;;;;;5095546;28;20074;-59
2023/06/25 05:15:48;;;;;;;21.02;11.38;;;18.30;99.90;;;;;;5095428;28;20075;-59
2023/06/25 05:18:14;;;;;;;19.17;11.90;;;18.40;99.90;;;;;;5095372;28;20127;-59
2023/06/25 05:20:40;;;;;;;18.38;11.25;;;18.30;99.90;;;;;;5095385;28;20036;-59
2023/06/25 05:23:07;;;;;;;24.70;12.13;;;18.30;99.90;;;;;;5095420;28;20385;-59
2023/06/25 05:25:34;;;;;;;18.42;11.20;;;18.30;99.90;;;;;;5095352;28;20728;-59
2023/06/25 05:28:04;;;;;;;21.73;13.57;;;18.50;99.90;;;;;;5095220;28;20350;-59
2023/06/25 05:30:31;;;;;;;23.33;12.50;;;18.50;99.90;;;;;;5095273;28;20080;-59
2023/06/25 05:32:57;;;;;;;17.90;12.80;;;18.50;99.90;;;;;;5095410;28;20019;-59
2023/06/25 05:35:23;;;;;;;24.98;14.00;;;18.50;99.90;;;;;;5097701;28;20077;-59
2023/06/25 05:37:49;;;;;;;21.92;14.30;;;18.70;99.90;;;;;;5115591;28;20038;-59
2023/06/25 05:40:15;;;;;;;23.00;14.30;;;18.70;99.90;;;;;;5115529;28;20358;-59
2023/06/25 05:42:41;;;;;;;26.38;13.70;;;18.90;99.90;;;;;;5115508;28;20027;-59
2023/06/25 05:45:08;;;;;;;24.10;13.77;;;18.80;99.90;;;;;;5115406;28;20120;-59
2023/06/25 05:47:34;;;;;;;23.15;14.27;;;19.00;99.90;;;;;;5115365;28;20481;-59
2023/06/25 05:50:00;;;;;;;22.42;13.55;;;19.00;99.90;;;;;;5115286;28;20046;-59
2023/06/25 05:52:26;;;;;;;22.90;12.60;;;19.00;99.90;;;;;;5114999;28;20027;-59
2023/06/25 05:54:52;;;;;;;21.23;12.60;;;19.00;99.90;;;;;;5115197;28;20016;-59
2023/06/25 05:57:18;;;;;;;18.23;12.65;;;19.00;99.90;;;;;;5115275;28;20123;-59
2023/06/25 05:59:44;;;;;;;19.67;13.20;;;19.00;99.90;;;;;;5115178;28;20622;-59
2023/06/25 06:02:10;;;;;;;17.70;12.77;;;19.10;99.90;;;;;;5115003;28;20031;-59
2023/06/25 06:04:36;;;;;;;22.25;11.68;;;19.10;99.90;;;;;;5115143;28;20378;-59
2023/06/25 06:07:03;;;;;;;15.45;10.77;;;19.10;99.90;;;;;;5115200;28;20446;-59
2023/06/25 06:09:29;;;;;;;19.35;10.18;;;19.20;99.90;;;;;;5115044;28;20023;-59
2023/06/25 06:11:55;;;;;;;14.80;9.60;;;19.30;99.90;;;;;;5114983;28;20038;-59
2023/06/25 06:14:21;;;;;;;15.38;9.07;;;19.20;99.90;;;;;;5114969;28;20043;-59
2023/06/25 06:16:47;;;;;;;16.88;8.32;;;19.20;99.90;;;;;;5115002;28;20035;-59
2023/06/25 06:19:13;;;;;;;11.60;7.18;;;19.30;99.90;;;;;;5114866;28;20038;-59
2023/06/25 06:21:39;;;;;;;12.30;7.38;;;19.30;99.90;;;;;;5115055;28;20396;-59
2023/06/25 06:24:05;;;;;;;12.90;8.18;;;19.30;99.90;;;;;;5114995;28;20094;-59
2023/06/25 06:26:31;;;;;;;8.88;6.65;;;19.30;99.90;;;;;;5114860;28;20464;-59
2023/06/25 06:28:57;;;;;;;10.63;6.65;;;19.30;99.90;;;;;;5115016;28;20015;-59
2023/06/25 06:31:23;;;;;;;9.57;6.55;;;19.40;99.90;;;;;;5114845;28;20474;-59
2023/06/25 06:33:48;;;;;;;9.48;7.07;;;19.40;99.90;;;;;;5114896;28;20020;-59
2023/06/25 06:36:14;;;;;;;11.02;6.45;;;19.50;99.90;;;;;;5105142;28;20051;-59
2023/06/25 06:38:40;;;;;;;12.10;6.40;;;19.60;99.90;;;;;;5094427;28;20111;-59
2023/06/25 06:41:06;;;;;;;10.13;6.82;;;19.70;99.90;;;;;;5094388;28;20067;-59
2023/06/25 06:43:32;;;;;;;10.65;6.80;;;19.80;99.90;;;;;;5094403;28;20451;-59
2023/06/25 06:45:58;;;;;;;9.95;6.80;;;19.90;99.90;;;;;;5094174;28;20116;-59
2023/06/25 06:48:24;;;;;;;9.65;6.47;;;20.00;99.90;;;;;;5094391;28;20031;-59
2023/06/25 06:50:50;;;;;;;9.75;6.45;;;20.20;99.90;;;;;;5094276;28;20028;-59
2023/06/25 06:53:16;;;;;;;10.18;6.10;;;20.20;99.90;;;;;;5094240;28;20024;-59
2023/06/25 06:55:42;;;;;;;10.75;6.32;;;20.40;99.90;;;;;;5094202;28;20062;-59
2023/06/25 06:58:08;;;;;;;10.77;6.68;;;20.40;99.90;;;;;;5094357;28;20035;-59
2023/06/25 07:00:34;;;;;;;10.00;7.10;;;20.50;99.90;;;;;;5094325;28;20028;-59
2023/06/25 07:03:00;;;;;;;9.90;6.78;;;20.50;99.90;;;;;;5094235;28;20477;-59
2023/06/25 07:05:26;;;;;;;9.93;6.57;;;20.60;99.90;;;;;;5097316;28;20077;-59
2023/06/25 07:07:52;;;;;;;11.48;6.68;;;20.50;99.90;;;;;;5097897;28;20119;-59
2023/06/25 07:10:17;;;;;;;10.65;6.68;;;20.60;99.90;;;;;;5098151;28;20031;-59
2023/06/25 07:12:43;;;;;;;8.15;6.15;;;20.60;99.90;;;;;;5097830;28;20032;-59
2023/06/25 07:15:09;;;;;;;10.38;7.10;;;20.60;99.90;;;;;;5097677;28;20068;-59
2023/06/25 07:17:35;;;;;;;8.98;6.40;;;20.50;99.90;;;;;;5097866;28;20381;-59
2023/06/25 07:20:01;;;;;;;8.95;6.13;;;20.50;99.90;;;;;;5097862;28;20024;-59
2023/06/25 07:22:27;;;;;;;10.70;5.97;;;20.50;99.90;;;;;;5097643;28;20039;-59
2023/06/25 07:24:53;;;;;;;8.27;5.68;;;20.60;99.90;;;;;;5097694;28;20047;-59
2023/06/25 07:27:19;;;;;;;8.68;5.60;;;20.60;99.90;;;;;;5097533;28;20032;-59
2023/06/25 07:29:45;;;;;;;8.70;6.70;;;20.60;99.90;;;;;;5097539;28;20020;-59
2023/06/25 07:32:11;;;;;;;11.68;6.82;;;20.60;99.90;;;;;;5097514;28;20024;-59
2023/06/25 07:34:37;;;;;;;8.57;6.40;;;20.60;99.90;;;;;;5097568;28;20032;-59
2023/06/25 07:37:03;;;;;;;9.82;6.20;;;20.80;99.90;;;;;;5113862;28;20033;-59
2023/06/25 07:39:30;;;;;;;10.40;6.72;;;20.80;99.90;;;;;;5117800;28;20036;-59
2023/06/25 07:41:56;;;;;;;13.45;7.13;;;20.80;99.90;;;;;;5117713;28;20054;-59
2023/06/25 07:44:22;;;;;;;9.32;6.70;;;20.80;99.90;;;;;;5117730;28;20030;-59
2023/06/25 07:46:49;;;;;;;9.05;6.53;;;20.80;99.90;;;;;;5117626;28;20043;-59
2023/06/25 07:49:15;;;;;;;12.68;6.57;;;20.90;99.90;;;;;;5117777;28;20047;-59
2023/06/25 07:51:53;;;;;;;11.73;7.03;;;20.80;99.90;;;;;;5117567;28;20031;-59
2023/06/25 07:54:19;;;;;;;9.75;6.25;;;20.90;99.90;;;;;;5117630;28;20469;-58
2023/06/25 07:56:45;;;;;;;11.27;6.65;;;20.80;99.90;;;;;;5117512;28;20038;-59
2023/06/25 07:59:14;;;;;;;10.88;6.63;;;20.90;99.90;;;;;;5117392;28;20054;-59
2023/06/25 08:01:41;;;;;;;7.43;5.97;;;20.90;99.90;;;;;;5117499;28;20055;-59
2023/06/25 08:04:07;;;;;;;7.90;5.80;;;20.90;99.90;;;;;;5116197;28;20031;-59
2023/06/25 08:06:33;;;;;;;8.10;6.53;;;21.00;99.90;;;;;;5117249;28;20035;-59
2023/06/25 08:09:00;;;;;;;7.88;6.70;;;20.80;99.90;;;;;;5117277;27;20028;-58
2023/06/25 08:11:25;;;;;;;10.90;6.88;;;20.80;99.90;;;;;;5117103;28;20083;-58
2023/06/25 08:13:51;;;;;;;16.38;8.43;;;21.00;99.90;;;;;;5117262;28;20059;-58
2023/06/25 08:16:18;;;;;;;10.02;6.93;;;20.90;99.90;;;;;;5116673;28;20126;-59
2023/06/25 08:18:43;;;;;;;9.90;6.28;;;21.00;99.90;;;;;;5117121;28;20039;-59
2023/06/25 08:21:10;;;;;;;7.75;6.32;;;21.00;99.90;;;;;;5117172;28;20024;-59
2023/06/25 08:23:35;;;;;;;9.73;7.05;;;20.90;99.90;;;;;;5117201;28;20035;-59
2023/06/25 08:26:02;;;;;;;7.95;6.55;;;21.00;99.90;;;;;;5116863;28;20024;-59
2023/06/25 08:28:28;;;;;;;14.00;8.05;;;21.00;99.90;;;;;;5116962;28;20051;-59
2023/06/25 08:30:54;;;;;;;10.27;7.38;;;21.10;99.90;;;;;;5116831;28;20038;-59
2023/06/25 08:33:20;;;;;;;9.48;6.70;;;21.00;99.90;;;;;;5116791;28;20020;-59
2023/06/25 08:35:46;;;;;;;8.48;5.97;;;21.10;99.90;;;;;;5110950;28;20525;-59
2023/06/25 08:38:17;;;;;;;7.97;5.88;;;21.00;99.90;;;;;;5096191;28;20115;-59
2023/06/25 08:40:48;;;;;;;11.50;6.60;;;21.00;99.90;;;;;;5096205;28;20024;-58
2023/06/25 08:43:14;;;;;;;10.70;6.82;;;21.10;99.90;;;;;;5096194;28;20051;-58
2023/06/25 08:45:42;;;;;;;9.07;7.45;;;21.00;99.90;;;;;;5096050;28;20032;-58
2023/06/25 08:48:12;;;;;;;8.52;6.82;;;21.00;99.90;;;;;;5096020;28;20020;-59
2023/06/25 08:50:41;;;;;;;13.30;7.50;;;21.00;99.90;;;;;;5096088;28;20020;-59
2023/06/25 08:53:07;;;;;;;11.60;7.90;;;21.00;99.90;;;;;;5095983;28;20462;-59
2023/06/25 08:55:35;;;;;;;14.93;9.27;;;21.10;99.90;;;;;;5095950;28;20077;-59
2023/06/25 08:58:01;;;;;;;15.35;9.13;;;21.10;99.90;;;;;;5096088;28;20060;-59
2023/06/25 09:00:27;;;;;;;15.02;9.65;;;21.10;99.90;;;;;;5095723;28;20028;-59
2023/06/25 09:02:56;;;;;;;13.98;8.80;;;21.10;99.90;;;;;;5095713;28;20048;-59
2023/06/25 09:05:26;;;;;;;14.35;8.50;;;21.10;99.90;;;;;;5095640;28;20028;-59
2023/06/25 09:07:52;;;;;;;;;;;21.10;99.90;;;;;;5096136;28;20492;-59
2023/06/25 09:10:22;;;;;;;17.67;9.90;;;21.20;99.90;;;;;;5095604;28;19915;-59
2023/06/25 09:12:49;;;;;;;20.80;11.50;;;21.40;99.90;;;;;;5095534;28;20036;-59
2023/06/25 09:15:22;;;;;;;27.08;14.95;;;21.60;99.90;;;;;;5095293;28;20044;-59
2023/06/25 09:17:49;;;;;;;36.83;18.85;;;21.60;99.90;;;;;;5110322;28;20369;-59
2023/06/25 09:20:15;;;;;;;50.25;25.90;;;21.60;99.90;;;;;;5116182;28;20019;-59
2023/06/25 09:22:52;;;;;;;58.45;30.48;;;21.70;99.90;;;;;;5116402;28;20027;-58
2023/06/25 09:25:21;;;;;;;104.35;52.95;;;21.90;99.90;;;;;;5115505;28;20027;-59
2023/06/25 09:27:48;;;;;;;149.27;70.95;;;22.00;99.90;;;;;;5114476;28;20034;-59
2023/06/25 09:30:14;;;;;;;124.45;66.80;;;22.10;99.90;;;;;;5115586;28;20066;-59
2023/06/25 09:32:54;;;;;;;102.47;52.38;;;22.10;99.90;;;;;;5115719;28;20031;-59
2023/06/25 09:35:22;;;;;;;88.23;43.70;;;22.30;99.90;;;;;;5116214;28;20081;-59
2023/06/25 09:37:51;;;;;;;96.75;46.25;;;22.50;99.90;;;;;;5116231;28;20042;-59
2023/06/25 09:40:17;;;;;;;95.05;46.08;;;22.70;99.90;;;;;;5116302;28;20024;-59
2023/06/25 09:42:44;;;;;;;104.35;46.75;;;22.80;99.90;;;;;;5116275;28;20027;-59
2023/06/25 09:45:16;;;;;;;72.80;33.88;;;23.00;99.90;;;;;;5116010;28;20069;-59
2023/06/25 09:47:46;;;;;;;69.38;33.38;;;23.30;99.90;;;;;;5116179;28;20024;-59
2023/06/25 09:50:18;;;;;;;53.28;28.90;;;23.30;99.90;;;;;;5115911;28;20023;-59
2023/06/25 09:53:06;;;;;;;52.83;28.33;;;23.30;99.90;;;;;;5114661;28;20040;-59
2023/06/25 09:55:35;;;;;;;49.22;29.23;;;23.10;99.90;;;;;;5113448;28;21163;-59
2023/06/25 09:58:01;;;;;;;47.13;27.42;;;23.10;99.90;;;;;;5115127;28;20035;-59
2023/06/25 10:00:28;;;;;;;45.47;26.27;;;23.40;99.90;;;;;;5111920;28;20035;-59
2023/06/25 10:02:54;;;;;;;46.50;25.77;;;23.50;99.90;;;;;;5115157;28;20023;-59
2023/06/25 10:05:21;;;;;;;45.90;30.50;;;23.40;99.90;;;;;;5115517;28;20055;-60
2023/06/25 10:07:47;;;;;;;48.50;30.45;;;23.40;99.90;;;;;;5115527;28;20034;-60
2023/06/25 10:10:24;;;;;;;49.00;30.67;;;23.50;99.90;;;;;;5115716;28;20024;-60
2023/06/25 10:12:50;;;;;;;47.05;27.17;;;23.50;99.90;;;;;;5115856;28;20032;-60
2023/06/25 10:15:28;;;;;;;45.53;27.52;;;23.30;99.90;;;;;;5115427;28;20047;-60
2023/06/25 10:17:57;;;;;;;49.17;28.92;;;23.30;99.90;;;;;;5115284;28;20148;-60
2023/06/25 10:20:28;;;;;;;43.97;27.15;;;23.20;99.90;;;;;;5114929;28;20111;-60
2023/06/25 10:23:11;;;;;;;45.22;27.52;;;23.00;99.90;;;;;;5115154;28;20468;-60
2023/06/25 10:25:39;;;;;;;48.17;28.83;;;23.20;99.90;;;;;;5114946;28;20038;-60
2023/06/25 10:28:13;;;;;;;45.70;26.52;;;23.30;99.90;;;;;;5114950;28;20107;-60
2023/06/25 10:31:00;;;;;;;33.60;20.10;;;23.40;99.90;;;;;;5114890;28;20036;-60
2023/06/25 10:33:30;;;;;;;39.05;22.85;;;23.30;99.90;;;;;;5114909;28;20120;-60
2023/06/25 10:35:58;;;;;;;37.88;22.63;;;23.40;99.90;;;;;;5107923;28;20043;-60
2023/06/25 10:38:24;;;;;;;42.92;23.92;;;23.30;99.90;;;;;;5096051;28;20028;-60
2023/06/25 10:40:51;;;;;;;33.30;19.33;;;23.40;99.90;;;;;;5098656;28;20493;-60
2023/06/25 10:43:18;;;;;;;23.05;12.63;;;23.40;99.90;;;;;;5098403;28;20431;-60
2023/06/25 10:46:02;;;;;;;15.45;9.77;;;23.30;99.90;;;;;;5098673;28;20070;-60
2023/06/25 10:48:28;;;;;;;11.30;7.93;;;23.40;99.90;;;;;;5098452;28;20067;-60
2023/06/25 10:50:55;;;;;;;10.32;7.32;;;23.30;99.90;;;;;;5098433;28;20032;-60
2023/06/25 10:53:23;;;;;;;9.93;7.18;;;23.30;99.90;;;;;;5098496;28;20465;-60
2023/06/25 10:55:53;;;;;;;10.05;6.07;;;23.30;99.90;;;;;;5098234;28;20039;-60
2023/06/25 10:58:23;;;;;;;9.48;6.55;;;23.20;99.90;;;;;;5098418;28;20032;-60
2023/06/25 11:00:57;;;;;;;8.05;5.72;;;23.10;99.90;;;;;;5098304;28;20433;-60
2023/06/25 11:03:23;;;;;;;7.30;6.00;;;23.00;99.90;;;;;;5097981;28;20024;-60
2023/06/25 11:05:50;;;;;;;6.55;5.13;;;23.00;99.90;;;;;;5098061;28;20028;-60
2023/06/25 11:08:16;;;;;;;6.50;4.50;;;22.80;99.90;;;;;;5098128;28;20032;-60
2023/06/25 11:10:43;;;;;;;6.28;5.15;;;22.90;99.90;;;;;;5097776;28;20078;-60
2023/06/25 11:13:13;;;;;;;7.15;4.75;;;22.90;99.90;;;;;;5097951;28;20493;-60
2023/06/25 11:15:42;;;;;;;5.50;4.40;;;23.10;99.90;;;;;;5097719;28;20070;-60
2023/06/25 11:18:09;;;;;;;4.90;4.40;;;23.10;99.90;;;;;;5097878;28;20478;-60
2023/06/25 11:20:38;;;;;;;7.28;5.15;;;23.30;99.90;;;;;;5097832;28;20039;-60
2023/06/25 11:23:04;;;;;;;5.32;4.75;;;23.00;99.90;;;;;;5097819;28;20024;-60
2023/06/25 11:25:31;;;;;;;6.82;4.60;;;23.10;99.90;;;;;;5096400;28;20032;-60
2023/06/25 11:28:08;;;;;;;7.32;5.00;;;23.30;99.90;;;;;;5097633;28;20028;-60
2023/06/25 11:30:34;;;;;;;6.32;4.93;;;23.40;99.90;;;;;;5097813;28;20492;-60
2023/06/25 11:33:11;;;;;;;5.65;5.03;;;23.60;99.90;;;;;;5097577;28;20039;-60
2023/06/25 11:35:37;;;;;;;6.18;5.57;;;23.70;99.90;;;;;;5101864;28;20031;-60
2023/06/25 11:38:04;;;;;;;6.88;5.40;;;23.70;99.90;;;;;;5118203;28;20028;-60
2023/06/25 11:40:32;;;;;;;7.00;5.30;;;23.80;99.90;;;;;;5117853;28;20066;-60
2023/06/25 11:42:58;;;;;;;5.53;4.43;;;23.90;99.90;;;;;;5117999;28;20031;-60
2023/06/25 11:45:24;;;;;;;6.18;5.18;;;24.10;99.90;;;;;;5117684;28;20024;-60
2023/06/25 11:47:53;;;;;;;6.43;5.03;;;24.30;99.90;;;;;;5117646;27;20065;-60
2023/06/25 11:50:25;;;;;;;5.05;4.47;;;24.40;99.90;;;;;;5116921;28;20063;-60
2023/06/25 11:52:55;;;;;;;5.18;4.45;;;24.40;99.90;;;;;;5117590;28;20034;-60
2023/06/25 11:55:21;;;;;;;6.60;4.50;;;24.50;99.90;;;;;;5117705;28;20020;-57
2023/06/25 11:57:51;;;;;;;5.38;4.70;;;24.40;99.90;;;;;;5117561;28;20024;-58
2023/06/25 12:00:17;;;;;;;5.78;4.60;;;24.10;99.90;;;;;;5117295;28;20088;-58
2023/06/25 12:02:43;;;;;;;8.73;5.20;;;24.40;99.90;;;;;;5117421;28;20020;-58
2023/06/25 12:05:09;;;;;;;6.47;5.03;;;24.70;99.90;;;;;;5117409;28;20031;-58
2023/06/25 12:07:36;;;;;;;10.95;5.63;;;24.80;99.90;;;;;;5117264;28;20028;-58
2023/06/25 12:10:02;;;;;;;8.90;5.10;;;25.10;99.90;;;;;;5117184;28;20095;-58
2023/06/25 12:12:28;;;;;;;8.88;6.60;;;25.10;99.90;;;;;;5117198;28;20058;-57
2023/06/25 12:14:54;;;;;;;9.52;6.70;;;25.00;99.90;;;;;;5116830;28;20052;-58
2023/06/25 12:17:19;;;;;;;11.63;7.00;;;25.00;99.90;;;;;;5117209;28;20400;-58
2023/06/25 12:19:45;;;;;;;7.05;6.22;;;25.00;99.90;;;;;;5117179;28;20043;-57
2023/06/25 12:22:11;;;;;;;7.03;5.85;;;24.80;99.90;;;;;;5116986;28;20089;-57
2023/06/25 12:24:38;;;;;;;9.63;5.72;;;24.60;99.90;;;;;;5117007;27;20165;-57
2023/06/25 12:27:04;;;;;;;7.80;5.90;;;24.50;99.90;;;;;;5116981;28;20024;-58
2023/06/25 12:29:31;;;;;;;6.63;5.25;;;24.20;99.90;;;;;;5116775;27;20027;-58
2023/06/25 12:31:57;;;;;;;6.35;5.72;;;24.20;99.90;;;;;;5116915;28;20058;-58
2023/06/25 12:34:23;;;;;;;10.00;5.78;;;24.10;99.90;;;;;;5117050;28;20024;-58
2023/06/25 12:36:49;;;;;;;9.68;5.35;;;24.10;99.90;;;;;;5116573;28;20396;-58
2023/06/25 12:39:15;;;;;;;7.18;4.72;;;24.10;99.90;;;;;;5116701;27;20019;-58